Time;durP1;ratioP1;P1;durP2;ratioP2;P2;SDS_P1;SDS_P2;PMS_P1;PMS_P2;Temp;Humidity;BMP_temperature;BMP_pressure;BME280_temperature;BME280_humidity;BME280_pressure;Samples;Min_cycle;Max_cycle;Signal;HPM_P1;HPM_P2
2023/02/03 03:12:30;;;;;;;3.30;2.53;;;0.40;92.50;;;;;;4666922;29;20629;-83
2023/02/03 03:37:57;;;;;;;4.30;3.70;;;-0.50;99.90;;;;;;4581246;30;20625;-81
2023/02/03 04:33:34;;;;;;;9.37;6.87;;;-1.30;99.90;;;;;;4622288;29;20610;-85
2023/02/03 05:04:30;;;;;;;10.60;7.37;;;-1.90;99.90;;;;;;4728546;29;20223;-84
2023/02/03 05:29:51;;;;;;;14.10;9.37;;;-1.40;99.90;;;;;;4677718;29;20287;-84
2023/02/03 06:30:50;;;;;;;10.43;7.47;;;-1.20;99.90;;;;;;4684361;30;20827;-83
2023/02/03 07:01:12;;;;;;;12.53;7.90;;;-1.00;99.90;;;;;;4610198;30;20220;-84
2023/02/03 07:21:18;;;;;;;11.70;7.63;;;-0.60;99.90;;;;;;4683428;30;20280;-82
2023/02/03 07:41:52;;;;;;;10.70;7.23;;;-0.20;99.90;;;;;;4608970;30;20363;-83
2023/02/03 08:02:13;;;;;;;9.90;6.13;;;0.30;99.90;;;;;;4669538;30;20314;-83
2023/02/03 08:22:15;;;;;;;9.10;5.63;;;0.60;95.30;;;;;;4639641;30;20214;-80
2023/02/03 08:47:50;;;;;;;8.57;5.70;;;1.20;91.50;;;;;;4723332;29;20250;-83
2023/02/03 09:13:09;;;;;;;11.30;6.03;;;1.50;90.70;;;;;;4785811;29;20204;-87
2023/02/03 09:33:22;;;;;;;6.37;4.70;;;2.10;86.80;;;;;;4731620;29;20235;-85
2023/02/03 09:58:34;;;;;;;6.63;4.00;;;2.10;83.90;;;;;;4598722;31;20446;-84
2023/02/03 10:38:49;;;;;;;3.40;2.20;;;3.10;81.60;;;;;;4803136;29;20528;-88
2023/02/03 11:04:26;;;;;;;2.30;2.00;;;2.70;81.10;;;;;;4779048;29;20227;-87
2023/02/03 11:35:18;;;;;;;4.03;2.40;;;2.60;81.20;;;;;;4733968;29;20205;-89
2023/02/03 11:39:41;;;;;;;3.83;2.37;;;2.60;81.50;;;;;;4732487;29;20225;-85
2023/02/03 12:10:48;;;;;;;2.97;2.50;;;2.60;81.90;;;;;;4649858;30;20418;-86
2023/02/03 12:45:51;;;;;;;4.40;2.83;;;2.60;80.30;;;;;;4479670;31;20261;-86
2023/02/03 13:16:33;;;;;;;4.37;3.10;;;2.30;81.80;;;;;;4559220;30;20354;-84
2023/02/03 13:46:34;;;;;;;7.50;4.70;;;1.60;91.30;;;;;;4589688;30;20645;-86
2023/02/03 14:17:29;;;;;;;8.27;5.77;;;0.70;99.90;;;;;;4712529;29;20505;-88
2023/02/03 14:37:25;;;;;;;10.23;6.43;;;0.30;99.90;;;;;;4750767;29;20557;-85
2023/02/03 15:07:43;;;;;;;13.03;8.10;;;0.20;99.90;;;;;;4778906;29;20415;-83
2023/02/03 15:28:15;;;;;;;11.60;7.00;;;0.20;99.90;;;;;;4650575;30;20229;-84
2023/02/03 16:14:06;;;;;;;12.83;8.63;;;0.10;99.90;;;;;;4814206;29;20252;-84
2023/02/03 17:25:03;;;;;;;22.20;11.93;;;0.30;99.90;;;;;;4853425;29;20653;-85
2023/02/03 17:50:03;;;;;;;22.93;13.23;;;0.40;99.90;;;;;;4616338;30;20275;-83
2023/02/03 18:10:17;;;;;;;23.73;14.20;;;0.40;99.90;;;;;;4582768;30;20544;-87
2023/02/03 18:40:30;;;;;;;33.23;21.20;;;0.50;99.90;;;;;;4679745;30;20302;-88
2023/02/03 19:01:08;;;;;;;36.67;23.73;;;0.40;99.90;;;;;;4634999;30;20269;-84
2023/02/03 19:31:49;;;;;;;22.27;12.90;;;0.30;99.90;;;;;;4678058;30;20357;-85
2023/02/03 20:07:16;;;;;;;26.83;16.37;;;0.30;99.90;;;;;;4621298;30;20270;-84
2023/02/03 20:27:39;;;;;;;18.10;11.33;;;0.30;99.90;;;;;;4825902;29;20302;-85
2023/02/03 20:57:31;;;;;;;13.90;8.07;;;0.40;99.90;;;;;;4470062;31;20565;-85
2023/02/03 21:27:51;;;;;;;26.17;15.37;;;0.30;99.90;;;;;;4677527;30;20428;-85
2023/02/03 21:59:00;;;;;;;22.60;12.83;;;0.30;99.90;;;;;;4601224;30;20243;-84
2023/02/03 22:03:23;;;;;;;24.43;15.80;;;0.20;99.90;;;;;;4589747;30;20878;-84
2023/02/03 22:24:20;;;;;;;18.30;11.90;;;0.20;99.90;;;;;;4684356;30;20258;-84
2023/02/03 22:28:44;;;;;;;24.93;15.27;;;0.10;99.90;;;;;;4543940;30;20267;-84
2023/02/03 22:49:41;;;;;;;17.80;11.60;;;0.00;99.90;;;;;;4698870;30;20264;-82
2023/02/03 23:24:28;;;;;;;14.77;8.90;;;-0.30;99.90;;;;;;4695449;30;20706;-82
2023/02/03 23:45:00;;;;;;;18.70;11.00;;;-0.10;99.90;;;;;;4660314;30;20824;-81
